Time;durP1;ratioP1;P1;durP2;ratioP2;P2;SDS_P1;SDS_P2;PMS_P1;PMS_P2;Temp;Humidity;BMP_temperature;BMP_pressure;BME280_temperature;BME280_humidity;BME280_pressure;Samples;Min_cycle;Max_cycle;Signal;HPM_P1;HPM_P2
2023/03/24 04:00:43;;;;;;;2.10;1.07;;;15.50;67.10;;;;;;5975362;23;20406;-72
2023/03/24 04:03:35;;;;;;;2.80;1.20;;;15.40;67.40;;;;;;4975431;28;20460;-72
2023/03/24 04:06:12;;;;;;;2.13;1.23;;;15.40;67.70;;;;;;4975469;28;20462;-72
2023/03/24 04:08:47;;;;;;;2.30;1.20;;;15.20;67.70;;;;;;4975413;28;20434;-72
2023/03/24 04:11:36;;;;;;;2.10;0.97;;;15.20;67.80;;;;;;4975251;28;20524;-72
2023/03/24 04:14:22;;;;;;;2.50;1.40;;;15.10;68.40;;;;;;4975777;28;20434;-72
2023/03/24 04:17:03;;;;;;;2.40;1.30;;;15.10;68.30;;;;;;4975164;28;20545;-74
2023/03/24 04:19:42;;;;;;;2.70;1.13;;;15.00;68.50;;;;;;4975741;28;20830;-73
2023/03/24 04:22:23;;;;;;;4.10;1.63;;;15.10;68.50;;;;;;4975048;28;20465;-73
2023/03/24 04:24:54;;;;;;;2.33;1.20;;;15.10;68.50;;;;;;4975109;28;20533;-72
2023/03/24 04:27:27;;;;;;;2.10;1.20;;;15.10;68.10;;;;;;4975047;28;20435;-73
2023/03/24 04:30:05;;;;;;;2.37;1.10;;;15.20;68.70;;;;;;4975032;28;20443;-73
2023/03/24 04:32:41;;;;;;;2.73;1.43;;;15.10;68.10;;;;;;4974222;28;20473;-73
2023/03/24 04:35:13;;;;;;;2.33;0.90;;;15.10;68.40;;;;;;4974827;28;20482;-73
2023/03/24 04:37:40;;;;;;;2.90;1.30;;;15.20;68.80;;;;;;4975048;28;20434;-73
2023/03/24 04:40:10;;;;;;;2.33;1.40;;;15.20;68.20;;;;;;4974413;28;21003;-73
2023/03/24 04:42:40;;;;;;;2.73;1.80;;;15.10;68.80;;;;;;4975631;28;20561;-73
2023/03/24 04:45:09;;;;;;;5.40;1.30;;;15.10;68.60;;;;;;4975463;28;20431;-73
2023/03/24 04:47:43;;;;;;;2.10;0.90;;;15.20;68.80;;;;;;4974718;28;20446;-73
2023/03/24 04:50:11;;;;;;;2.57;1.37;;;15.20;68.90;;;;;;4974715;28;20438;-72
2023/03/24 04:52:38;;;;;;;2.43;1.07;;;15.40;68.70;;;;;;4974514;28;20478;-72
2023/03/24 04:55:26;;;;;;;2.43;1.10;;;15.40;68.50;;;;;;4974283;28;20478;-72
2023/03/24 04:57:53;;;;;;;2.70;1.30;;;15.50;68.80;;;;;;4974517;28;20497;-72
2023/03/24 05:00:19;;;;;;;2.10;0.90;;;15.60;68.40;;;;;;4974323;28;20873;-73
2023/03/24 05:02:47;;;;;;;2.10;1.00;;;15.60;68.80;;;;;;4974170;28;20469;-73
2023/03/24 05:05:16;;;;;;;2.50;1.00;;;15.60;68.80;;;;;;4974121;28;20943;-73
2023/03/24 05:07:42;;;;;;;2.07;1.00;;;15.60;68.70;;;;;;4974430;28;20446;-73
2023/03/24 05:10:10;;;;;;;2.50;1.47;;;15.60;68.70;;;;;;4974553;28;20457;-72
2023/03/24 05:12:36;;;;;;;2.10;1.10;;;15.50;69.40;;;;;;4974260;28;20474;-74
2023/03/24 05:15:04;;;;;;;2.23;1.03;;;15.50;69.40;;;;;;4974241;28;20450;-73
2023/03/24 05:17:30;;;;;;;2.40;1.33;;;15.40;69.90;;;;;;4974396;28;20497;-73
2023/03/24 05:19:58;;;;;;;2.23;1.20;;;15.40;69.80;;;;;;4974289;28;20482;-73
2023/03/24 05:22:25;;;;;;;2.20;1.10;;;15.50;70.00;;;;;;4974287;28;20474;-74
2023/03/24 05:24:52;;;;;;;3.50;1.47;;;15.50;70.30;;;;;;4974058;28;20944;-72
2023/03/24 05:27:18;;;;;;;2.20;1.23;;;15.40;70.90;;;;;;4974249;28;20454;-73
2023/03/24 05:29:45;;;;;;;2.30;1.10;;;15.50;71.20;;;;;;4974244;28;20450;-74
2023/03/24 05:32:12;;;;;;;2.40;1.10;;;15.40;73.00;;;;;;4973875;28;21082;-74
2023/03/24 05:34:39;;;;;;;2.27;1.03;;;15.40;73.50;;;;;;4974277;28;20450;-73
2023/03/24 05:37:10;;;;;;;2.70;1.33;;;15.30;74.70;;;;;;4974046;28;20486;-73
2023/03/24 05:39:37;;;;;;;2.27;1.10;;;15.20;75.00;;;;;;4974334;28;20492;-73
2023/03/24 05:42:04;;;;;;;2.40;1.27;;;15.10;76.00;;;;;;4974019;28;20520;-73
2023/03/24 05:44:31;;;;;;;2.40;1.30;;;15.10;76.20;;;;;;4977046;28;20450;-74
2023/03/24 05:46:57;;;;;;;2.50;1.43;;;15.10;76.90;;;;;;4978011;28;20500;-73
2023/03/24 05:49:24;;;;;;;2.50;1.37;;;15.10;77.10;;;;;;4978015;28;20446;-73
2023/03/24 05:51:51;;;;;;;2.20;1.30;;;15.10;76.70;;;;;;4977832;28;20482;-73
2023/03/24 05:54:19;;;;;;;2.13;1.10;;;15.10;77.50;;;;;;4978024;28;20477;-73
2023/03/24 05:56:45;;;;;;;2.33;1.20;;;15.20;77.30;;;;;;4977846;28;20485;-73
2023/03/24 05:59:12;;;;;;;2.47;1.13;;;15.30;77.30;;;;;;4977926;28;20450;-73
2023/03/24 06:01:41;;;;;;;2.30;1.23;;;15.20;77.90;;;;;;4977627;28;20482;-73
2023/03/24 06:04:07;;;;;;;3.83;1.40;;;15.40;77.70;;;;;;4977780;28;20511;-73
2023/03/24 06:06:34;;;;;;;2.50;1.40;;;15.40;77.90;;;;;;4978200;28;20449;-74
2023/03/24 06:09:03;;;;;;;2.63;1.23;;;15.30;77.80;;;;;;4977681;28;20450;-73
2023/03/24 06:11:31;;;;;;;2.20;1.30;;;15.20;78.60;;;;;;4977473;28;20470;-74
2023/03/24 06:13:59;;;;;;;2.30;1.20;;;15.10;78.70;;;;;;4977511;28;20868;-74
2023/03/24 06:16:25;;;;;;;2.23;1.30;;;15.00;79.30;;;;;;4977472;28;20524;-73
2023/03/24 06:18:52;;;;;;;2.40;1.63;;;15.10;79.20;;;;;;4977350;28;21059;-74
2023/03/24 06:21:19;;;;;;;2.40;1.50;;;15.00;79.60;;;;;;4977082;28;20998;-74
2023/03/24 06:23:46;;;;;;;2.50;1.40;;;14.90;79.70;;;;;;4977188;28;20490;-74
2023/03/24 06:26:15;;;;;;;2.40;1.50;;;14.80;80.50;;;;;;4977365;28;20450;-73
2023/03/24 06:28:43;;;;;;;2.60;1.50;;;14.80;80.90;;;;;;4976882;28;20940;-74
2023/03/24 06:31:13;;;;;;;5.70;1.63;;;14.90;80.70;;;;;;4977137;28;20884;-74
2023/03/24 06:33:41;;;;;;;2.40;1.30;;;14.90;80.70;;;;;;4977136;28;20439;-74
2023/03/24 06:36:08;;;;;;;2.47;1.57;;;15.00;80.40;;;;;;4976995;28;20485;-74
2023/03/24 06:38:35;;;;;;;3.03;1.30;;;15.00;80.10;;;;;;4977232;28;20453;-73
2023/03/24 06:41:02;;;;;;;3.10;1.93;;;14.90;80.10;;;;;;4977029;28;20474;-74
2023/03/24 06:43:29;;;;;;;3.20;1.80;;;14.80;80.60;;;;;;4976990;28;20480;-73
2023/03/24 06:45:57;;;;;;;2.67;1.60;;;14.50;81.20;;;;;;4976599;28;20935;-72
2023/03/24 06:48:24;;;;;;;2.30;1.40;;;14.50;81.40;;;;;;4976858;28;20453;-73
2023/03/24 06:50:52;;;;;;;2.33;1.40;;;14.40;81.90;;;;;;4976447;28;21006;-72
2023/03/24 06:53:20;;;;;;;2.87;1.60;;;14.30;82.80;;;;;;4976827;28;20509;-73
2023/03/24 06:55:47;;;;;;;2.47;1.43;;;14.20;82.90;;;;;;4975680;28;20860;-73
2023/03/24 06:58:14;;;;;;;2.60;1.50;;;14.10;83.20;;;;;;4976601;28;20446;-73
2023/03/24 07:00:41;;;;;;;2.50;1.60;;;14.00;83.90;;;;;;4976240;28;20963;-72
2023/03/24 07:03:09;;;;;;;2.80;1.70;;;13.70;84.80;;;;;;4976927;28;20442;-72
2023/03/24 07:05:38;;;;;;;3.87;1.83;;;13.80;85.50;;;;;;4976641;28;20450;-73
2023/03/24 07:08:05;;;;;;;2.50;1.80;;;13.80;85.60;;;;;;4976716;28;20449;-73
2023/03/24 07:10:32;;;;;;;2.80;1.70;;;13.70;85.90;;;;;;4976531;28;20517;-72
2023/03/24 07:13:00;;;;;;;2.90;1.77;;;13.70;85.90;;;;;;4976602;28;20456;-73
2023/03/24 07:15:27;;;;;;;2.60;1.83;;;13.70;86.60;;;;;;4976169;28;20944;-73
2023/03/24 07:17:53;;;;;;;2.87;1.90;;;13.70;86.90;;;;;;4976428;28;20449;-74
2023/03/24 07:20:21;;;;;;;2.70;1.70;;;13.70;87.20;;;;;;4976485;28;20450;-73
2023/03/24 07:22:48;;;;;;;2.63;1.90;;;13.60;87.50;;;;;;4976456;28;20868;-74
2023/03/24 07:25:18;;;;;;;2.70;1.90;;;13.60;88.30;;;;;;4976424;28;20505;-74
2023/03/24 07:27:46;;;;;;;2.60;1.70;;;13.70;88.10;;;;;;4976390;28;20586;-75
2023/03/24 07:30:14;;;;;;;4.57;1.80;;;13.70;87.80;;;;;;4977300;28;20451;-74
2023/03/24 07:32:41;;;;;;;2.97;1.80;;;13.70;88.50;;;;;;4976172;28;20501;-74
2023/03/24 07:35:09;;;;;;;3.20;1.77;;;13.60;89.00;;;;;;4976151;28;20454;-74
2023/03/24 07:37:37;;;;;;;2.77;2.03;;;13.60;88.90;;;;;;4976092;28;20564;-74
2023/03/24 07:40:05;;;;;;;3.10;1.67;;;13.60;88.80;;;;;;4976088;28;20458;-73
2023/03/24 07:42:32;;;;;;;2.77;1.90;;;13.60;89.20;;;;;;4975875;28;20538;-74
2023/03/24 07:44:59;;;;;;;4.33;1.97;;;13.60;89.20;;;;;;4976003;28;20450;-73
2023/03/24 07:47:25;;;;;;;2.80;1.50;;;13.60;89.30;;;;;;4975993;28;20442;-73
2023/03/24 07:49:52;;;;;;;2.90;1.90;;;13.60;89.40;;;;;;4975920;28;20525;-73
2023/03/24 07:52:18;;;;;;;3.37;2.10;;;13.70;89.00;;;;;;4975757;28;20470;-73
2023/03/24 07:54:46;;;;;;;2.80;1.80;;;13.60;89.10;;;;;;4975876;28;20485;-73
2023/03/24 07:57:13;;;;;;;3.20;2.00;;;13.70;89.60;;;;;;4975607;28;20482;-73
2023/03/24 07:59:40;;;;;;;3.90;2.00;;;13.80;89.20;;;;;;4975566;28;20450;-73
2023/03/24 08:02:16;;;;;;;4.27;2.40;;;13.70;89.30;;;;;;4975246;28;20486;-72
2023/03/24 08:04:43;;;;;;;3.20;2.20;;;13.60;89.50;;;;;;4975648;28;20441;-73
2023/03/24 08:07:11;;;;;;;2.70;1.93;;;13.50;89.70;;;;;;4974624;28;20454;-72
2023/03/24 08:09:39;;;;;;;3.20;1.97;;;13.40;90.20;;;;;;4975494;28;20450;-71
2023/03/24 08:12:07;;;;;;;2.73;1.60;;;13.30;91.10;;;;;;4975040;28;21043;-73
2023/03/24 08:14:34;;;;;;;2.90;1.87;;;13.30;91.00;;;;;;4975303;28;20457;-73
2023/03/24 08:17:01;;;;;;;2.90;1.60;;;13.30;91.70;;;;;;4975891;28;20486;-73
2023/03/24 08:19:27;;;;;;;3.23;1.97;;;13.40;91.10;;;;;;4975895;28;20461;-73
2023/03/24 08:21:54;;;;;;;3.70;1.93;;;13.50;91.20;;;;;;4975637;28;20470;-73
2023/03/24 08:24:21;;;;;;;2.90;2.10;;;13.60;91.00;;;;;;4975605;28;20446;-73
2023/03/24 08:26:48;;;;;;;2.77;1.80;;;13.60;90.80;;;;;;4975548;28;20442;-72
2023/03/24 08:29:16;;;;;;;3.10;2.20;;;13.40;91.20;;;;;;4975671;28;20443;-73
2023/03/24 08:31:42;;;;;;;2.70;1.97;;;13.40;91.60;;;;;;4975275;28;20469;-71
2023/03/24 08:34:10;;;;;;;2.50;1.93;;;13.30;91.60;;;;;;4975349;28;20485;-72
2023/03/24 08:36:37;;;;;;;2.80;1.77;;;13.20;92.30;;;;;;4975090;28;20915;-71
2023/03/24 08:39:08;;;;;;;3.23;2.33;;;13.20;92.40;;;;;;4975514;28;20454;-72
2023/03/24 08:41:35;;;;;;;2.70;1.60;;;13.10;92.40;;;;;;4974980;28;20470;-72
2023/03/24 08:44:03;;;;;;;2.67;1.80;;;13.00;92.90;;;;;;4974879;28;20454;-72
2023/03/24 08:46:32;;;;;;;3.77;1.87;;;13.00;93.20;;;;;;4974834;28;20509;-72
2023/03/24 08:48:59;;;;;;;3.00;1.50;;;13.00;93.60;;;;;;4974869;28;20442;-73
2023/03/24 08:51:27;;;;;;;2.70;1.80;;;12.90;93.20;;;;;;4974774;28;20517;-75
2023/03/24 08:53:54;;;;;;;2.90;1.80;;;13.00;93.50;;;;;;4974702;28;20446;-73
2023/03/24 08:56:21;;;;;;;2.50;1.60;;;13.10;92.90;;;;;;4974574;28;21003;-73
2023/03/24 08:58:50;;;;;;;2.50;1.50;;;13.10;93.00;;;;;;4974459;28;20999;-73
2023/03/24 09:01:16;;;;;;;2.50;1.57;;;13.30;93.00;;;;;;4974516;28;21015;-73
2023/03/24 09:03:45;;;;;;;2.90;1.83;;;13.40;92.20;;;;;;4974881;28;20486;-71
2023/03/24 09:06:12;;;;;;;3.23;1.80;;;13.40;91.70;;;;;;4974528;28;20828;-73
2023/03/24 09:08:39;;;;;;;2.70;1.50;;;13.40;91.70;;;;;;4974681;28;20509;-71
2023/03/24 09:11:07;;;;;;;3.00;1.90;;;13.50;92.10;;;;;;4974628;28;20533;-72
2023/03/24 09:13:33;;;;;;;2.50;1.73;;;13.70;91.90;;;;;;4974268;28;20482;-72
2023/03/24 09:16:02;;;;;;;3.30;2.13;;;13.50;91.60;;;;;;4974963;28;20497;-73
2023/03/24 09:18:29;;;;;;;3.10;1.80;;;13.50;91.90;;;;;;4975171;28;20442;-72
2023/03/24 09:20:57;;;;;;;2.67;1.70;;;13.40;91.60;;;;;;4974247;28;21002;-73
2023/03/24 09:23:24;;;;;;;2.83;1.53;;;13.50;91.60;;;;;;4974846;28;20453;-73
2023/03/24 09:25:52;;;;;;;2.70;2.00;;;13.50;90.80;;;;;;4974669;28;20442;-74
2023/03/24 09:28:19;;;;;;;3.17;1.80;;;13.60;90.80;;;;;;4974546;28;20442;-72
2023/03/24 09:30:46;;;;;;;2.70;1.67;;;13.60;90.30;;;;;;4974480;28;20496;-71
2023/03/24 09:33:13;;;;;;;3.13;2.23;;;13.60;90.10;;;;;;4974562;28;20497;-72
2023/03/24 09:35:40;;;;;;;2.40;1.53;;;13.80;90.50;;;;;;4974509;28;20504;-73
2023/03/24 09:38:09;;;;;;;2.97;1.53;;;13.80;89.80;;;;;;4974452;28;20507;-73
2023/03/24 09:40:37;;;;;;;2.50;1.50;;;13.80;88.90;;;;;;4974730;28;20494;-72
2023/03/24 09:43:07;;;;;;;3.70;1.60;;;14.00;89.90;;;;;;4974540;28;20505;-72
2023/03/24 09:45:41;;;;;;;2.67;1.37;;;14.20;87.60;;;;;;4974437;28;20517;-73
2023/03/24 09:48:13;;;;;;;2.50;1.30;;;14.30;88.20;;;;;;4974679;28;20431;-72
2023/03/24 09:50:46;;;;;;;3.00;1.50;;;14.30;87.10;;;;;;4974476;28;20430;-72
2023/03/24 09:53:24;;;;;;;2.57;1.40;;;14.40;87.90;;;;;;4974677;28;20443;-73
2023/03/24 09:55:52;;;;;;;2.87;1.47;;;14.60;87.60;;;;;;4974643;28;20845;-73
2023/03/24 09:58:20;;;;;;;2.90;1.50;;;14.60;86.20;;;;;;4974644;28;20486;-73
2023/03/24 10:00:47;;;;;;;2.50;1.40;;;14.40;86.00;;;;;;4974170;28;20553;-73
2023/03/24 10:03:19;;;;;;;2.80;1.37;;;14.60;86.30;;;;;;4974097;28;20431;-73
2023/03/24 10:05:52;;;;;;;2.50;1.37;;;14.80;85.70;;;;;;4974053;28;20442;-72
2023/03/24 10:08:28;;;;;;;2.67;1.53;;;15.10;86.10;;;;;;4974012;28;20534;-72
2023/03/24 10:11:01;;;;;;;3.23;1.80;;;15.20;84.80;;;;;;4974013;28;20544;-73
2023/03/24 10:13:39;;;;;;;2.27;1.27;;;15.50;83.60;;;;;;4974504;28;20849;-73
2023/03/24 10:16:12;;;;;;;2.20;1.10;;;15.50;83.50;;;;;;4974075;28;20489;-73
2023/03/24 10:18:44;;;;;;;2.30;1.40;;;15.50;82.60;;;;;;4973742;28;20877;-73
2023/03/24 10:21:17;;;;;;;2.20;1.17;;;15.30;82.90;;;;;;4973930;28;20528;-72
2023/03/24 10:23:53;;;;;;;2.40;1.20;;;15.40;82.10;;;;;;4974209;28;20440;-74
2023/03/24 10:26:31;;;;;;;2.10;0.90;;;15.50;83.00;;;;;;4974105;28;20437;-74
2023/03/24 10:29:09;;;;;;;2.07;1.00;;;15.50;79.70;;;;;;4973675;28;20845;-72
2023/03/24 10:31:38;;;;;;;2.10;0.90;;;15.40;79.70;;;;;;4977203;28;20472;-73
2023/03/24 10:34:09;;;;;;;2.30;0.90;;;15.50;77.80;;;;;;4977400;28;20454;-73
2023/03/24 10:36:37;;;;;;;2.10;1.00;;;15.60;77.40;;;;;;4976122;28;20434;-73
2023/03/24 10:39:05;;;;;;;2.10;1.00;;;15.80;78.10;;;;;;4977046;28;20496;-73
2023/03/24 10:41:34;;;;;;;2.57;0.87;;;15.80;77.70;;;;;;4976834;28;21086;-73
2023/03/24 10:44:01;;;;;;;2.00;0.90;;;15.90;77.30;;;;;;4976819;28;20940;-73
2023/03/24 10:46:31;;;;;;;2.10;0.97;;;16.00;76.30;;;;;;4977189;28;20446;-74
2023/03/24 10:49:08;;;;;;;2.30;0.97;;;16.10;76.00;;;;;;4977019;28;20532;-73
2023/03/24 10:51:35;;;;;;;2.10;0.90;;;16.10;75.80;;;;;;4977128;28;20569;-74
2023/03/24 10:54:12;;;;;;;2.10;0.93;;;16.20;75.70;;;;;;4976957;28;20450;-73
2023/03/24 10:56:41;;;;;;;2.00;0.87;;;16.00;75.00;;;;;;4977281;28;20438;-72
2023/03/24 10:59:19;;;;;;;2.10;1.10;;;16.00;75.60;;;;;;4976663;28;20449;-74
2023/03/24 11:01:46;;;;;;;1.90;0.70;;;15.70;75.60;;;;;;4976684;28;20478;-73
2023/03/24 11:04:16;;;;;;;2.17;0.97;;;15.70;75.80;;;;;;4976890;28;20822;-73
2023/03/24 11:06:57;;;;;;;2.30;1.20;;;15.60;76.20;;;;;;4976741;28;20454;-73
2023/03/24 11:09:25;;;;;;;1.93;0.90;;;15.80;76.10;;;;;;4976786;28;20877;-73
2023/03/24 11:11:52;;;;;;;2.00;0.90;;;16.00;74.80;;;;;;4976239;28;20474;-72
2023/03/24 11:14:24;;;;;;;2.40;0.80;;;16.10;75.10;;;;;;4976642;28;20454;-73
2023/03/24 11:16:51;;;;;;;2.93;0.87;;;16.30;73.50;;;;;;4976615;28;20497;-73
2023/03/24 11:19:20;;;;;;;3.50;1.00;;;16.20;72.70;;;;;;4976657;28;20481;-76
2023/03/24 11:21:47;;;;;;;2.00;0.90;;;16.20;73.40;;;;;;4976648;28;20624;-73
2023/03/24 11:24:16;;;;;;;2.00;0.90;;;16.30;73.10;;;;;;4976329;28;20541;-74
2023/03/24 11:26:58;;;;;;;2.00;0.70;;;16.30;72.90;;;;;;4976665;28;20501;-73
2023/03/24 11:29:27;;;;;;;2.00;0.80;;;16.50;73.00;;;;;;4976445;28;20477;-73
2023/03/24 11:31:56;;;;;;;2.00;0.80;;;16.60;72.90;;;;;;4975956;28;21056;-73
2023/03/24 11:34:25;;;;;;;1.90;0.70;;;16.70;72.20;;;;;;4976497;28;20529;-74
2023/03/24 11:36:54;;;;;;;1.90;0.80;;;16.70;71.60;;;;;;4976037;28;20441;-73
2023/03/24 11:39:23;;;;;;;2.07;0.80;;;16.70;71.30;;;;;;4976228;28;20500;-73
2023/03/24 11:42:16;;;;;;;2.07;0.80;;;16.90;71.10;;;;;;4975788;28;20834;-73
2023/03/24 11:44:48;;;;;;;1.90;0.80;;;16.70;71.50;;;;;;4971597;28;20452;-74
2023/03/24 11:47:22;;;;;;;1.93;0.80;;;16.60;71.80;;;;;;4976222;28;20435;-75
2023/03/24 11:49:54;;;;;;;1.90;0.80;;;16.50;71.60;;;;;;4975761;28;20784;-73
2023/03/24 11:52:27;;;;;;;2.20;0.80;;;16.10;71.80;;;;;;4975862;28;20470;-75
2023/03/24 11:54:54;;;;;;;1.90;0.70;;;15.90;72.30;;;;;;4975742;28;20449;-72
2023/03/24 11:57:33;;;;;;;2.00;0.80;;;15.80;71.90;;;;;;4975572;28;20533;-74
2023/03/24 12:00:08;;;;;;;2.30;0.80;;;15.80;72.40;;;;;;4975624;28;20434;-73
2023/03/24 12:02:51;;;;;;;2.00;0.70;;;15.70;71.70;;;;;;4975165;28;20492;-74
2023/03/24 12:05:25;;;;;;;1.80;0.60;;;15.70;71.80;;;;;;4975595;28;20498;-75
2023/03/24 12:08:13;;;;;;;2.00;0.80;;;15.60;72.30;;;;;;4976156;28;20489;-74
2023/03/24 12:11:02;;;;;;;1.90;0.70;;;15.90;72.30;;;;;;4975528;28;20841;-73
2023/03/24 12:13:36;;;;;;;1.90;0.70;;;16.00;70.40;;;;;;4975788;28;20851;-75
2023/03/24 12:16:21;;;;;;;1.80;0.60;;;16.20;70.40;;;;;;4975619;28;20439;-73
2023/03/24 12:18:59;;;;;;;1.90;0.70;;;16.30;70.20;;;;;;4975329;28;20469;-74
2023/03/24 12:21:40;;;;;;;1.90;0.70;;;16.20;69.40;;;;;;4975354;28;20466;-74
2023/03/24 12:24:16;;;;;;;1.90;0.70;;;16.30;69.30;;;;;;4975273;28;20438;-75
2023/03/24 12:26:43;;;;;;;1.80;0.70;;;16.40;69.40;;;;;;4975210;28;20430;-74
2023/03/24 12:29:36;;;;;;;1.80;0.60;;;16.10;69.50;;;;;;4975098;28;20453;-74
2023/03/24 12:32:31;;;;;;;2.00;0.67;;;16.10;70.00;;;;;;4975080;28;20509;-74
2023/03/24 12:35:28;;;;;;;1.90;0.70;;;16.20;70.70;;;;;;4968229;28;20974;-75
2023/03/24 12:38:05;;;;;;;1.80;0.60;;;16.20;69.10;;;;;;4974875;28;20523;-73
2023/03/24 12:41:05;;;;;;;1.90;0.70;;;16.00;70.10;;;;;;4974669;28;20904;-74
2023/03/24 12:43:41;;;;;;;1.90;0.70;;;15.90;70.50;;;;;;4974881;28;20502;-74
2023/03/24 12:46:25;;;;;;;2.00;0.60;;;15.90;70.80;;;;;;4974870;28;20489;-74
2023/03/24 12:49:14;;;;;;;2.10;0.80;;;15.90;71.70;;;;;;4975654;28;20426;-74
2023/03/24 12:51:47;;;;;;;2.00;0.70;;;15.80;71.40;;;;;;4974783;28;20481;-73
2023/03/24 12:54:26;;;;;;;2.00;0.70;;;15.60;71.90;;;;;;4974264;28;20469;-74
2023/03/24 12:56:56;;;;;;;2.20;0.80;;;15.70;72.30;;;;;;4974934;28;20438;-75
2023/03/24 12:59:29;;;;;;;2.00;0.80;;;15.70;72.10;;;;;;4974277;28;20975;-73
2023/03/24 13:02:03;;;;;;;2.10;0.80;;;15.50;72.60;;;;;;4974640;28;20606;-73
2023/03/24 13:04:33;;;;;;;2.00;0.70;;;15.60;73.10;;;;;;4974590;28;20434;-73
2023/03/24 13:07:05;;;;;;;1.90;0.70;;;15.80;72.40;;;;;;4974433;28;20501;-73
2023/03/24 13:09:44;;;;;;;1.90;0.60;;;15.60;72.50;;;;;;4974719;28;20501;-74
2023/03/24 13:12:14;;;;;;;1.80;0.70;;;15.70;72.50;;;;;;4974456;28;20478;-74
2023/03/24 13:14:50;;;;;;;2.40;0.73;;;15.80;72.50;;;;;;4974106;28;20940;-73
2023/03/24 13:17:23;;;;;;;1.90;0.70;;;15.90;72.10;;;;;;4974468;28;20485;-74
2023/03/24 13:19:53;;;;;;;2.10;0.70;;;15.80;72.40;;;;;;4975165;28;20435;-73
2023/03/24 13:22:23;;;;;;;2.17;0.77;;;15.80;72.50;;;;;;4974219;28;20466;-74
2023/03/24 13:24:50;;;;;;;1.80;0.70;;;15.80;71.60;;;;;;4974201;28;20991;-73
2023/03/24 13:27:22;;;;;;;1.80;0.60;;;15.60;72.60;;;;;;4974108;28;20520;-74
2023/03/24 13:30:13;;;;;;;2.00;0.70;;;15.50;72.60;;;;;;4974285;28;20485;-74
2023/03/24 13:32:45;;;;;;;1.97;0.80;;;15.50;73.40;;;;;;4974164;28;20469;-74
2023/03/24 13:35:19;;;;;;;1.90;0.80;;;15.50;73.10;;;;;;4974078;28;20434;-74
2023/03/24 13:37:51;;;;;;;2.30;0.90;;;15.50;72.70;;;;;;4974035;28;20466;-73
2023/03/24 13:40:23;;;;;;;1.87;0.60;;;15.60;72.40;;;;;;4974140;28;20466;-74
2023/03/24 13:42:55;;;;;;;1.90;0.80;;;15.70;72.50;;;;;;4973969;28;20558;-73
2023/03/24 13:45:34;;;;;;;1.90;0.77;;;15.70;72.20;;;;;;4974136;28;20498;-73
2023/03/24 13:48:17;;;;;;;2.00;0.70;;;15.80;71.70;;;;;;4973867;28;20430;-74
2023/03/24 13:50:55;;;;;;;1.90;0.70;;;15.70;72.10;;;;;;4974024;28;20470;-73
2023/03/24 13:53:32;;;;;;;1.80;0.60;;;15.70;72.20;;;;;;4974060;28;20470;-74
2023/03/24 13:56:00;;;;;;;1.80;0.60;;;15.60;71.80;;;;;;4974309;28;20441;-76
2023/03/24 13:58:43;;;;;;;1.90;0.80;;;15.50;72.90;;;;;;4973773;28;20513;-74
2023/03/24 14:01:31;;;;;;;1.90;0.70;;;15.50;72.60;;;;;;4973819;28;20489;-74
2023/03/24 14:04:27;;;;;;;2.03;0.80;;;15.50;72.80;;;;;;4974163;28;20445;-74
2023/03/24 14:06:55;;;;;;;1.90;0.80;;;15.40;72.60;;;;;;4977619;28;20798;-74
2023/03/24 14:09:24;;;;;;;1.90;0.80;;;15.20;72.60;;;;;;4977353;28;20940;-74
2023/03/24 14:12:15;;;;;;;2.53;0.87;;;15.00;72.50;;;;;;4977744;28;20516;-73
2023/03/24 14:15:12;;;;;;;2.00;0.60;;;15.10;73.40;;;;;;4977502;28;20851;-74
2023/03/24 14:17:43;;;;;;;1.90;0.70;;;15.20;72.70;;;;;;4977842;28;20619;-72
2023/03/24 14:20:28;;;;;;;2.10;0.90;;;15.20;72.60;;;;;;4977913;28;20434;-73
2023/03/24 14:22:55;;;;;;;1.90;0.73;;;15.10;73.10;;;;;;4977801;28;20801;-73
2023/03/24 14:25:26;;;;;;;1.90;0.70;;;15.20;73.50;;;;;;4977722;28;20457;-74
2023/03/24 14:27:54;;;;;;;1.80;0.60;;;15.20;73.60;;;;;;4977206;28;20668;-73
2023/03/24 14:30:24;;;;;;;1.73;0.60;;;15.30;72.80;;;;;;4977494;28;20446;-73
2023/03/24 14:32:53;;;;;;;1.90;0.70;;;15.20;72.80;;;;;;4977798;28;20454;-73
2023/03/24 14:35:31;;;;;;;1.90;0.70;;;15.10;73.10;;;;;;4977867;28;20453;-73
2023/03/24 14:38:01;;;;;;;2.37;0.73;;;15.10;73.30;;;;;;4977112;28;20431;-74
2023/03/24 14:40:34;;;;;;;1.80;0.70;;;15.20;73.50;;;;;;4977429;28;20427;-72
2023/03/24 14:43:15;;;;;;;1.83;0.70;;;15.30;73.00;;;;;;4977135;28;20435;-74
2023/03/24 14:46:00;;;;;;;2.30;0.70;;;15.50;73.40;;;;;;4976993;28;20438;-73
2023/03/24 14:48:36;;;;;;;2.20;0.77;;;15.50;73.20;;;;;;4977066;28;20439;-73
2023/03/24 14:51:13;;;;;;;2.10;0.70;;;15.50;73.10;;;;;;4976525;28;20501;-74
2023/03/24 14:53:41;;;;;;;2.17;1.03;;;15.10;73.50;;;;;;4976550;28;20430;-73
2023/03/24 14:56:13;;;;;;;1.83;0.80;;;14.60;74.80;;;;;;4976896;28;20473;-75
2023/03/24 14:58:42;;;;;;;2.20;0.70;;;14.50;75.50;;;;;;4976717;28;20478;-73
2023/03/24 15:01:10;;;;;;;2.10;0.70;;;14.40;76.80;;;;;;4976602;28;20565;-73
2023/03/24 15:03:44;;;;;;;1.80;0.60;;;14.30;78.00;;;;;;4976767;28;20452;-73
2023/03/24 15:06:17;;;;;;;2.93;0.93;;;14.00;78.70;;;;;;4976770;28;20437;-71
2023/03/24 15:08:46;;;;;;;2.40;0.90;;;13.90;79.60;;;;;;4976661;28;20439;-71
2023/03/24 15:11:15;;;;;;;1.90;0.70;;;14.00;80.10;;;;;;4976601;28;20553;-73
2023/03/24 15:13:43;;;;;;;2.00;0.80;;;13.70;80.60;;;;;;4976205;28;20936;-73
2023/03/24 15:16:19;;;;;;;1.90;0.67;;;13.80;81.20;;;;;;4976020;28;20458;-74
2023/03/24 15:18:48;;;;;;;2.00;0.80;;;13.90;80.70;;;;;;4976561;28;20562;-73
2023/03/24 15:21:26;;;;;;;2.10;0.80;;;13.70;80.60;;;;;;4976397;28;20532;-73
2023/03/24 15:23:53;;;;;;;1.90;0.70;;;13.80;80.80;;;;;;4976608;28;20489;-73
2023/03/24 15:26:22;;;;;;;1.90;0.80;;;13.90;80.60;;;;;;4976458;28;20745;-73
2023/03/24 15:28:55;;;;;;;2.40;0.90;;;13.90;80.80;;;;;;4976409;28;20832;-73
2023/03/24 15:31:24;;;;;;;2.20;0.87;;;14.00;82.10;;;;;;4976296;28;20466;-73
2023/03/24 15:33:51;;;;;;;1.97;0.80;;;13.90;83.00;;;;;;4976256;28;20501;-73
2023/03/24 15:36:22;;;;;;;1.97;0.70;;;13.70;83.50;;;;;;4976261;28;20450;-73
2023/03/24 15:38:51;;;;;;;2.10;0.80;;;13.70;84.20;;;;;;4975818;28;20817;-74
2023/03/24 15:41:20;;;;;;;1.83;0.70;;;13.60;83.90;;;;;;4976218;28;20466;-71
2023/03/24 15:43:50;;;;;;;2.30;0.80;;;13.30;83.40;;;;;;4976119;28;20451;-69
2023/03/24 15:46:26;;;;;;;1.90;0.70;;;13.10;84.40;;;;;;4976097;28;20861;-70
2023/03/24 15:48:54;;;;;;;2.10;0.63;;;13.20;85.20;;;;;;4976158;28;20472;-75
2023/03/24 15:51:47;;;;;;;2.20;0.80;;;13.20;85.10;;;;;;4975788;28;20478;-73
2023/03/24 15:54:20;;;;;;;3.07;1.00;;;13.20;84.70;;;;;;4975557;28;20449;-74
2023/03/24 15:57:03;;;;;;;2.20;0.70;;;13.10;85.70;;;;;;4976491;28;20449;-74
2023/03/24 15:59:35;;;;;;;1.80;0.60;;;13.10;84.70;;;;;;4975628;28;20474;-74
2023/03/24 16:02:05;;;;;;;2.13;0.80;;;13.10;85.70;;;;;;4975287;28;20497;-75
2023/03/24 16:04:32;;;;;;;1.90;0.70;;;13.10;86.00;;;;;;4975853;28;20458;-75
2023/03/24 16:07:00;;;;;;;2.00;0.90;;;13.20;85.80;;;;;;4975505;28;20446;-74
2023/03/24 16:09:36;;;;;;;2.20;0.80;;;13.00;86.00;;;;;;4975428;28;20447;-75
2023/03/24 16:12:08;;;;;;;2.00;0.80;;;13.00;87.10;;;;;;4975745;28;20526;-74
2023/03/24 16:14:35;;;;;;;2.10;0.70;;;13.10;86.60;;;;;;4975932;28;20481;-73
2023/03/24 16:17:02;;;;;;;2.10;1.10;;;13.00;86.40;;;;;;4975213;28;20466;-73
2023/03/24 16:19:29;;;;;;;2.00;0.80;;;13.00;86.90;;;;;;4975091;28;20577;-74
2023/03/24 16:21:56;;;;;;;2.00;0.80;;;13.00;87.10;;;;;;4974992;28;20478;-73
2023/03/24 16:24:24;;;;;;;2.07;0.87;;;13.10;87.00;;;;;;4975697;28;20458;-73
2023/03/24 16:26:51;;;;;;;2.10;0.90;;;13.10;86.80;;;;;;4975048;28;20549;-74
2023/03/24 16:29:20;;;;;;;2.73;1.00;;;13.00;87.40;;;;;;4974228;28;20582;-75
2023/03/24 16:31:48;;;;;;;1.90;0.80;;;13.00;86.90;;;;;;4974946;28;20481;-74
2023/03/24 16:34:15;;;;;;;2.10;0.80;;;13.20;87.30;;;;;;4975022;28;20442;-75
2023/03/24 16:36:42;;;;;;;1.97;0.80;;;13.30;85.60;;;;;;4974989;28;20455;-74
2023/03/24 16:39:15;;;;;;;2.20;0.90;;;13.40;86.20;;;;;;4974522;28;21069;-74
2023/03/24 16:41:44;;;;;;;2.43;1.10;;;13.50;85.60;;;;;;4974727;28;20470;-74
2023/03/24 16:44:11;;;;;;;2.97;0.83;;;13.30;85.00;;;;;;4975055;28;20471;-74
2023/03/24 16:46:39;;;;;;;2.10;0.80;;;13.30;85.60;;;;;;4974964;28;20450;-71
2023/03/24 16:49:07;;;;;;;2.40;1.00;;;13.30;85.10;;;;;;4974868;28;20443;-72
2023/03/24 16:51:34;;;;;;;1.90;0.70;;;13.30;84.70;;;;;;4974597;28;20470;-73
2023/03/24 16:54:01;;;;;;;1.90;0.77;;;13.40;84.50;;;;;;4974745;28;20454;-74
2023/03/24 16:56:27;;;;;;;3.37;1.33;;;13.30;84.60;;;;;;4974696;28;20450;-72
2023/03/24 16:58:56;;;;;;;2.00;0.73;;;13.10;84.50;;;;;;4974571;28;20478;-74
2023/03/24 17:01:32;;;;;;;2.27;0.97;;;13.00;85.30;;;;;;4974415;28;20486;-73
2023/03/24 17:04:00;;;;;;;2.20;1.00;;;13.20;85.40;;;;;;4974545;28;20534;-72
2023/03/24 17:06:28;;;;;;;1.90;0.80;;;13.30;83.80;;;;;;4974445;28;20446;-73
2023/03/24 17:08:55;;;;;;;2.90;0.80;;;13.40;84.10;;;;;;4974442;28;20517;-73